Time;durP1;ratioP1;P1;durP2;ratioP2;P2;SDS_P1;SDS_P2;PMS_P1;PMS_P2;Temp;Humidity;BMP_temperature;BMP_pressure;BME280_temperature;BME280_humidity;BME280_pressure;Samples;Min_cycle;Max_cycle;Signal;HPM_P1;HPM_P2
2023/09/16 00:00:08;;;;;;;;;;;;;;;18.96;57.42;101522.28;4172528;28;20387;-69
2023/09/16 00:02:10;;;;;;;;;;;;;;;18.95;57.55;101528.81;4172823;28;20031;-69
2023/09/16 00:04:12;;;;;;;;;;;;;;;18.92;57.24;101521.03;4172164;28;20028;-69
2023/09/16 00:06:14;;;;;;;;;;;;;;;18.88;57.46;101522.50;4172165;28;20015;-69
2023/09/16 00:08:17;;;;;;;;;;;;;;;18.86;57.47;101527.34;4171845;28;19932;-68
2023/09/16 00:10:19;;;;;;;;;;;;;;;18.85;57.46;101521.03;4171555;28;20043;-68
2023/09/16 00:12:21;;;;;;;;;;;;;;;18.84;57.48;101532.16;4171950;28;20028;-68
2023/09/16 00:14:24;;;;;;;;;;;;;;;18.83;57.70;101522.28;4171367;28;20027;-68
2023/09/16 00:16:26;;;;;;;;;;;;;;;18.81;57.66;101525.22;4170864;28;20016;-68
2023/09/16 00:18:28;;;;;;;;;;;;;;;18.80;57.54;101529.00;4172184;28;20044;-68
2023/09/16 00:20:32;;;;;;;;;;;;;;;18.77;57.36;101518.47;4171523;28;20343;-68
2023/09/16 00:22:36;;;;;;;;;;;;;;;18.75;57.73;101517.88;4171436;28;20100;-68
2023/09/16 00:24:39;;;;;;;;;;;;;;;18.73;57.76;101517.25;4171714;28;20051;-68
2023/09/16 00:26:42;;;;;;;;;;;;;;;18.71;57.70;101513.84;4171638;28;20023;-68
2023/09/16 00:28:45;;;;;;;;;;;;;;;18.70;57.61;101520.41;4172209;28;20470;-68
2023/09/16 00:30:48;;;;;;;;;;;;;;;18.67;57.91;101515.34;4172136;28;20019;-68
2023/09/16 00:32:50;;;;;;;;;;;;;;;18.66;57.47;101519.13;4171982;28;20027;-68
2023/09/16 00:34:52;;;;;;;;;;;;;;;18.64;57.79;101516.63;4172196;28;20016;-68
2023/09/16 00:36:54;;;;;;;;;;;;;;;18.64;57.79;101513.03;4187055;28;20023;-68
2023/09/16 00:38:57;;;;;;;;;;;;;;;18.62;57.87;101513.25;4153646;28;20047;-68
2023/09/16 00:41:00;;;;;;;;;;;;;;;18.62;57.58;101512.38;4171269;28;19926;-68
2023/09/16 00:43:03;;;;;;;;;;;;;;;18.60;57.81;101512.59;4185964;28;20499;-68
2023/09/16 00:45:10;;;;;;;;;;;;;;;18.56;57.70;101514.09;4172181;28;20075;-69
2023/09/16 00:47:12;;;;;;;;;;;;;;;18.53;57.81;101509.06;4171643;28;20028;-68
2023/09/16 00:49:14;;;;;;;;;;;;;;;18.52;57.76;101512.81;4171873;28;20499;-68
2023/09/16 00:51:19;;;;;;;;;;;;;;;18.49;57.96;101505.88;4169471;28;20016;-68
2023/09/16 00:53:20;;;;;;;;;;;;;;;18.48;58.12;101511.56;4168914;28;20031;-67
2023/09/16 00:55:22;;;;;;;;;;;;;;;18.47;58.09;101509.88;4187881;28;19964;-68
2023/09/16 00:57:26;;;;;;;;;;;;;;;18.45;57.93;101499.16;4171248;28;20365;-68
2023/09/16 00:59:28;;;;;;;;;;;;;;;18.43;58.04;101501.28;4170466;28;20016;-68
2023/09/16 01:01:30;;;;;;;;;;;;;;;18.42;57.97;101504.22;4171811;28;19933;-68
2023/09/16 01:03:35;;;;;;;;;;;;;;;18.41;58.12;101497.88;4171319;28;20012;-68
2023/09/16 01:05:37;;;;;;;;;;;;;;;18.39;58.14;101497.28;4171851;28;20482;-68
2023/09/16 01:07:39;;;;;;;;;;;;;;;18.36;58.41;101494.94;4186236;28;20019;-68
2023/09/16 01:09:41;;;;;;;;;;;;;;;18.34;58.33;101495.16;4170555;28;20012;-68
2023/09/16 01:11:43;;;;;;;;;;;;;;;18.32;58.55;101494.53;4160597;28;20362;-69
2023/09/16 01:13:50;;;;;;;;;;;;;;;18.30;58.28;101496.63;4172006;28;20020;-69
2023/09/16 01:15:53;;;;;;;;;;;;;;;18.29;58.69;101497.69;4171707;28;20023;-68
2023/09/16 01:17:57;;;;;;;;;;;;;;;18.28;58.58;101489.69;4171612;28;20028;-68
2023/09/16 01:20:01;;;;;;;;;;;;;;;18.27;58.45;101488.84;4169786;28;20020;-68
2023/09/16 01:22:03;;;;;;;;;;;;;;;18.26;58.60;101487.19;4169184;28;20490;-67
2023/09/16 01:24:16;;;;;;;;;;;;;;;18.23;58.50;101484.84;4169934;28;20015;-68
2023/09/16 01:26:20;;;;;;;;;;;;;;;18.20;58.51;101482.53;4168848;28;20028;-68
2023/09/16 01:28:22;;;;;;;;;;;;;;;18.18;58.52;101484.63;4169280;28;20015;-68
2023/09/16 01:30:25;;;;;;;;;;;;;;;18.13;58.59;101487.16;4185454;28;20012;-69
2023/09/16 01:32:28;;;;;;;;;;;;;;;18.11;58.57;101481.06;4169597;28;20466;-68
2023/09/16 01:34:32;;;;;;;;;;;;;;;18.09;58.46;101480.44;4170109;28;20031;-68
2023/09/16 01:36:34;;;;;;;;;;;;;;;18.07;58.73;101486.13;4171836;28;20394;-69
2023/09/16 01:38:37;;;;;;;;;;;;;;;18.06;58.82;101478.97;4171227;28;20400;-69
2023/09/16 01:40:39;;;;;;;;;;;;;;;18.04;58.78;101478.34;4171503;28;20020;-68
2023/09/16 01:42:42;;;;;;;;;;;;;;;18.04;58.52;101472.00;4185970;28;20378;-69
2023/09/16 01:44:44;;;;;;;;;;;;;;;18.01;58.67;101463.19;4177161;28;20459;-68
2023/09/16 01:46:46;;;;;;;;;;;;;;;17.99;58.48;101469.91;4174906;28;20020;-68
2023/09/16 01:48:48;;;;;;;;;;;;;;;17.98;58.51;101457.31;4170900;28;20024;-68
2023/09/16 01:50:50;;;;;;;;;;;;;;;17.96;58.60;101467.56;4169913;28;20023;-68
2023/09/16 01:52:51;;;;;;;;;;;;;;;17.93;58.80;101471.59;4170542;28;20023;-68
2023/09/16 01:54:53;;;;;;;;;;;;;;;17.92;58.99;101478.09;4186100;28;20080;-68
2023/09/16 01:56:55;;;;;;;;;;;;;;;17.90;58.83;101472.00;4169739;28;20012;-68
2023/09/16 01:58:58;;;;;;;;;;;;;;;17.87;58.82;101471.53;4185866;28;20042;-68
2023/09/16 02:01:00;;;;;;;;;;;;;;;17.84;58.91;101481.84;4184757;28;20028;-67
2023/09/16 02:03:02;;;;;;;;;;;;;;;17.83;59.11;101471.09;4170392;28;19932;-68
2023/09/16 02:05:06;;;;;;;;;;;;;;;17.81;59.02;101465.03;4169207;28;20381;-67
2023/09/16 02:07:09;;;;;;;;;;;;;;;17.78;59.17;101468.16;4169199;28;20019;-68
2023/09/16 02:09:11;;;;;;;;;;;;;;;17.74;59.03;101466.88;4170753;28;20023;-68
2023/09/16 02:11:13;;;;;;;;;;;;;;;17.73;59.11;101467.94;4169266;28;20023;-68
2023/09/16 02:13:15;;;;;;;;;;;;;;;17.70;59.37;101463.72;4170713;28;20024;-68
2023/09/16 02:15:18;;;;;;;;;;;;;;;17.68;59.43;101462.25;4170702;28;20051;-68
2023/09/16 02:17:20;;;;;;;;;;;;;;;17.67;59.37;101460.59;4170318;28;20053;-68
2023/09/16 02:19:25;;;;;;;;;;;;;;;17.65;59.32;101452.59;4185204;28;20015;-68
2023/09/16 02:21:27;;;;;;;;;;;;;;;17.64;59.15;101456.38;4168675;28;20020;-69
2023/09/16 02:23:30;;;;;;;;;;;;;;;17.63;59.50;101469.19;4168346;28;19933;-68
2023/09/16 02:25:33;;;;;;;;;;;;;;;17.61;59.13;101456.78;4170365;28;20012;-68
2023/09/16 02:27:35;;;;;;;;;;;;;;;17.59;59.18;101456.97;4170390;28;20368;-68
2023/09/16 02:29:39;;;;;;;;;;;;;;;17.60;59.16;101452.34;4184996;28;20030;-68
2023/09/16 02:31:44;;;;;;;;;;;;;;;17.57;59.07;101453.63;4171192;28;20016;-68
2023/09/16 02:33:46;;;;;;;;;;;;;;;17.55;59.37;101461.16;4180195;28;20023;-68
2023/09/16 02:35:48;;;;;;;;;;;;;;;17.54;59.36;101461.38;4173999;28;20020;-68
2023/09/16 02:37:50;;;;;;;;;;;;;;;17.51;59.36;101457.19;4188469;28;20478;-68
2023/09/16 02:39:52;;;;;;;;;;;;;;;17.50;59.47;101458.22;4171916;28;20627;-68
2023/09/16 02:41:54;;;;;;;;;;;;;;;17.49;59.29;101453.78;4173002;28;20252;-68
2023/09/16 02:43:56;;;;;;;;;;;;;;;17.47;59.20;101451.25;4173951;28;19937;-68
2023/09/16 02:45:58;;;;;;;;;;;;;;;17.47;59.28;101444.97;4173695;28;20573;-68
2023/09/16 02:48:01;;;;;;;;;;;;;;;17.45;59.34;101447.91;4188524;28;20044;-68
2023/09/16 02:50:04;;;;;;;;;;;;;;;17.42;59.26;101442.03;4187849;28;20023;-68
2023/09/16 02:52:06;;;;;;;;;;;;;;;17.40;59.48;101439.50;4187030;28;20030;-69
2023/09/16 02:54:08;;;;;;;;;;;;;;;17.39;59.19;101437.81;4173288;28;20024;-68
2023/09/16 02:56:10;;;;;;;;;;;;;;;17.38;59.27;101440.72;4173919;28;20007;-68
2023/09/16 02:58:12;;;;;;;;;;;;;;;17.36;59.38;101438.22;4155933;28;20474;-68
2023/09/16 03:00:14;;;;;;;;;;;;;;;17.35;59.18;101441.16;4171357;28;20028;-68
2023/09/16 03:02:16;;;;;;;;;;;;;;;17.33;59.35;101437.78;4173603;28;20369;-68
2023/09/16 03:04:20;;;;;;;;;;;;;;;17.32;59.22;101436.09;4177911;28;20470;-69
2023/09/16 03:06:23;;;;;;;;;;;;;;;17.31;59.24;101442.63;4188673;28;19986;-68
2023/09/16 03:08:26;;;;;;;;;;;;;;;17.29;59.39;101430.00;4179193;28;20007;-68
2023/09/16 03:10:29;;;;;;;;;;;;;;;17.27;59.23;101432.09;4186883;28;20015;-68
2023/09/16 03:12:31;;;;;;;;;;;;;;;17.26;59.21;101432.31;4187492;28;20027;-68
2023/09/16 03:14:33;;;;;;;;;;;;;;;17.24;59.17;101429.78;4188281;28;20047;-68
2023/09/16 03:16:35;;;;;;;;;;;;;;;17.22;59.33;101431.03;4188267;28;20019;-68
2023/09/16 03:18:37;;;;;;;;;;;;;;;17.20;59.08;101424.94;4171510;28;20024;-68
2023/09/16 03:20:41;;;;;;;;;;;;;;;17.18;59.38;101433.34;4186985;28;20035;-68
2023/09/16 03:22:43;;;;;;;;;;;;;;;17.17;59.27;101428.91;4178974;28;20412;-68
2023/09/16 03:24:45;;;;;;;;;;;;;;;17.16;59.20;101427.22;4171120;28;19974;-68
2023/09/16 03:26:47;;;;;;;;;;;;;;;17.15;59.37;101430.16;4177445;28;20020;-68
2023/09/16 03:28:49;;;;;;;;;;;;;;;17.13;59.41;101427.63;4178677;28;20032;-68
2023/09/16 03:30:56;;;;;;;;;;;;;;;17.10;59.17;101422.59;4177320;28;20011;-68
2023/09/16 03:32:58;;;;;;;;;;;;;;;17.09;59.38;101427.19;4177200;28;20023;-68
2023/09/16 03:35:01;;;;;;;;;;;;;;;17.09;59.21;101431.81;4187974;28;20019;-68
2023/09/16 03:37:06;;;;;;;;;;;;;;;17.07;59.44;101420.28;4172887;28;20020;-68
2023/09/16 03:39:08;;;;;;;;;;;;;;;17.07;59.29;101420.28;4171293;28;20023;-68
2023/09/16 03:41:10;;;;;;;;;;;;;;;17.06;59.11;101415.84;4186612;28;20015;-68
2023/09/16 03:43:11;;;;;;;;;;;;;;;17.04;59.19;101410.59;4170521;28;20019;-68
2023/09/16 03:45:13;;;;;;;;;;;;;;;17.04;59.30;101412.50;4178185;28;19928;-68
2023/09/16 03:47:15;;;;;;;;;;;;;;;17.02;59.22;101400.91;4188092;28;20474;-68
2023/09/16 03:49:18;;;;;;;;;;;;;;;17.01;59.29;101404.72;4187568;28;20019;-68
2023/09/16 03:51:21;;;;;;;;;;;;;;;17.00;59.38;101398.41;4186555;28;20011;-68
2023/09/16 03:53:25;;;;;;;;;;;;;;;16.99;59.15;101393.13;4186992;28;20023;-68
2023/09/16 03:55:29;;;;;;;;;;;;;;;16.98;59.04;101392.31;4186819;28;20414;-69
2023/09/16 03:57:31;;;;;;;;;;;;;;;16.96;59.42;101399.00;4187530;28;20015;-68
2023/09/16 03:59:33;;;;;;;;;;;;;;;16.95;59.04;101394.63;4178349;28;20088;-69
2023/09/16 04:01:35;;;;;;;;;;;;;;;16.93;59.03;101395.66;4185230;28;20401;-68
2023/09/16 04:03:38;;;;;;;;;;;;;;;16.92;59.18;101385.75;4171141;28;20031;-68
2023/09/16 04:05:39;;;;;;;;;;;;;;;16.91;59.39;101385.97;4172280;28;20834;-69
2023/09/16 04:07:41;;;;;;;;;;;;;;;16.89;59.18;101391.63;4170306;28;19929;-68
2023/09/16 04:09:45;;;;;;;;;;;;;;;16.86;59.21;101392.03;4169788;28;20020;-69
2023/09/16 04:11:47;;;;;;;;;;;;;;;16.86;59.24;101391.19;4171258;28;20036;-68
2023/09/16 04:13:49;;;;;;;;;;;;;;;16.85;59.42;101392.19;4187022;28;20370;-68
2023/09/16 04:15:51;;;;;;;;;;;;;;;16.83;59.05;101392.41;4186338;28;20019;-69
2023/09/16 04:17:53;;;;;;;;;;;;;;;16.81;59.22;101380.88;4172606;28;20455;-68
2023/09/16 04:19:54;;;;;;;;;;;;;;;16.81;59.46;101388.22;4177672;28;20032;-68
2023/09/16 04:21:57;;;;;;;;;;;;;;;16.80;59.28;101389.25;4172235;28;20358;-69
2023/09/16 04:23:58;;;;;;;;;;;;;;;16.78;59.25;101400.38;4170041;28;20031;-68
2023/09/16 04:26:03;;;;;;;;;;;;;;;16.75;59.50;101396.19;4170704;28;20019;-68
2023/09/16 04:28:04;;;;;;;;;;;;;;;16.75;59.38;101398.03;4186625;28;20580;-68
2023/09/16 04:30:08;;;;;;;;;;;;;;;16.73;59.24;101400.97;4171443;28;20016;-68
2023/09/16 04:32:10;;;;;;;;;;;;;;;16.73;59.52;101395.50;4176854;28;20032;-69
2023/09/16 04:34:14;;;;;;;;;;;;;;;16.73;59.30;101397.41;4170591;28;20024;-68
2023/09/16 04:36:16;;;;;;;;;;;;;;;16.71;59.32;101402.22;4170128;28;20047;-68
2023/09/16 04:38:19;;;;;;;;;;;;;;;16.70;59.17;101401.38;4177688;28;20373;-68
2023/09/16 04:40:22;;;;;;;;;;;;;;;16.70;59.54;101404.09;4177469;28;20461;-69
2023/09/16 04:42:30;;;;;;;;;;;;;;;16.69;59.36;101404.28;4170930;28;20459;-69
2023/09/16 04:44:38;;;;;;;;;;;;;;;16.67;59.47;101398.22;4186549;28;20024;-68
2023/09/16 04:46:41;;;;;;;;;;;;;;;16.65;59.39;101400.31;4186818;28;20483;-68
2023/09/16 04:48:44;;;;;;;;;;;;;;;16.65;59.46;101401.13;4177015;28;20047;-68
2023/09/16 04:50:46;;;;;;;;;;;;;;;16.64;59.73;101388.53;4170106;28;20032;-68
2023/09/16 04:52:50;;;;;;;;;;;;;;;16.64;59.61;101391.25;4184129;28;20031;-68
2023/09/16 04:54:53;;;;;;;;;;;;;;;16.64;59.39;101395.88;4186913;28;20016;-68
2023/09/16 04:56:57;;;;;;;;;;;;;;;16.63;59.51;101399.66;4185988;28;20039;-66
2023/09/16 04:59:00;;;;;;;;;;;;;;;16.61;59.44;101402.56;4185952;28;20031;-66
2023/09/16 05:01:04;;;;;;;;;;;;;;;16.59;59.46;101410.13;4171666;28;20016;-68
2023/09/16 05:03:06;;;;;;;;;;;;;;;16.56;59.42;101402.34;4169696;28;20012;-65
2023/09/16 05:05:11;;;;;;;;;;;;;;;16.52;59.62;101399.19;4171905;28;20031;-67
2023/09/16 05:07:14;;;;;;;;;;;;;;;16.51;59.85;101408.41;4170705;28;20024;-68
2023/09/16 05:09:16;;;;;;;;;;;;;;;16.50;59.52;101403.16;4185715;28;20023;-67
2023/09/16 05:11:18;;;;;;;;;;;;;;;16.49;59.75;101396.84;4168559;28;20032;-68
2023/09/16 05:13:25;;;;;;;;;;;;;;;16.49;59.75;101409.63;4185903;28;20048;-67
2023/09/16 05:15:29;;;;;;;;;;;;;;;16.48;59.41;101408.78;4177050;28;20027;-66
2023/09/16 05:17:32;;;;;;;;;;;;;;;16.46;59.77;101402.72;4171338;28;20078;-67
2023/09/16 05:19:35;;;;;;;;;;;;;;;16.49;59.93;101412.34;4176666;28;20020;-67
2023/09/16 05:21:38;;;;;;;;;;;;;;;16.49;59.77;101409.63;4171438;28;20024;-67
2023/09/16 05:23:40;;;;;;;;;;;;;;;16.49;59.70;101412.34;4186715;28;20015;-67
2023/09/16 05:25:48;;;;;;;;;;;;;;;16.50;59.67;101416.78;4169932;28;20027;-66
2023/09/16 05:27:54;;;;;;;;;;;;;;;16.50;59.93;101412.16;4172300;28;20340;-65
2023/09/16 05:29:56;;;;;;;;;;;;;;;16.50;59.95;101409.44;4185764;28;20477;-66
2023/09/16 05:32:00;;;;;;;;;;;;;;;16.49;59.83;101407.75;4185282;28;20042;-66
2023/09/16 05:34:02;;;;;;;;;;;;;;;16.50;59.92;101412.16;4176597;28;20614;-66
2023/09/16 05:36:05;;;;;;;;;;;;;;;16.48;60.15;101408.78;4170004;28;20427;-66
2023/09/16 05:38:08;;;;;;;;;;;;;;;16.48;59.89;101408.78;4186076;28;20027;-66
2023/09/16 05:40:11;;;;;;;;;;;;;;;16.51;59.76;101408.41;4168767;28;20494;-66
2023/09/16 05:42:13;;;;;;;;;;;;;;;16.51;59.85;101416.56;4185859;28;20027;-66
2023/09/16 05:44:19;;;;;;;;;;;;;;;16.52;59.73;101421.00;4171995;28;20016;-66
2023/09/16 05:46:23;;;;;;;;;;;;;;;16.54;59.96;101409.91;4185787;28;20388;-65
2023/09/16 05:48:26;;;;;;;;;;;;;;;16.53;59.74;101413.66;4177083;28;19933;-65
2023/09/16 05:50:29;;;;;;;;;;;;;;;16.54;59.81;101418.91;4167640;28;20059;-68
2023/09/16 05:52:31;;;;;;;;;;;;;;;16.53;60.07;101408.19;4175101;28;20035;-65
2023/09/16 05:54:34;;;;;;;;;;;;;;;16.54;59.85;101412.63;4176458;28;20027;-65
2023/09/16 05:56:38;;;;;;;;;;;;;;;16.55;59.88;101414.28;4186220;28;20008;-67
2023/09/16 05:58:42;;;;;;;;;;;;;;;16.56;59.94;101410.53;4171567;28;20034;-67
2023/09/16 06:00:53;;;;;;;;;;;;;;;16.58;59.77;101419.34;4170463;28;20035;-67
2023/09/16 06:02:55;;;;;;;;;;;;;;;16.60;60.17;101424.59;4170568;28;20015;-66
2023/09/16 06:04:59;;;;;;;;;;;;;;;16.61;59.76;101434.47;4169333;28;20031;-67
2023/09/16 06:07:01;;;;;;;;;;;;;;;16.62;59.83;101434.28;4174284;28;20573;-68
2023/09/16 06:09:03;;;;;;;;;;;;;;;16.63;59.96;101427.78;4173848;28;19990;-69
2023/09/16 06:11:05;;;;;;;;;;;;;;;16.66;59.50;101429.25;4189253;28;20791;-67
2023/09/16 06:13:07;;;;;;;;;;;;;;;16.68;59.93;101433.47;4180886;28;20084;-67
2023/09/16 06:15:10;;;;;;;;;;;;;;;16.71;59.76;101426.78;4189253;28;19936;-67
2023/09/16 06:17:13;;;;;;;;;;;;;;;16.74;59.66;101429.09;4190121;28;20015;-67
2023/09/16 06:19:15;;;;;;;;;;;;;;;16.77;59.58;101425.97;4181326;28;20378;-66
2023/09/16 06:21:17;;;;;;;;;;;;;;;16.80;59.50;101433.72;4173407;28;20071;-66
2023/09/16 06:23:20;;;;;;;;;;;;;;;16.80;59.63;101431.00;4175446;28;21205;-66
2023/09/16 06:25:25;;;;;;;;;;;;;;;16.84;59.46;101426.00;4180284;28;19968;-66
2023/09/16 06:27:27;;;;;;;;;;;;;;;16.86;59.64;101434.84;4180278;28;20012;-65
2023/09/16 06:29:29;;;;;;;;;;;;;;;16.88;59.62;101427.28;4188950;28;20460;-67
2023/09/16 06:31:32;;;;;;;;;;;;;;;16.90;59.37;101427.97;4188654;28;20457;-67
2023/09/16 06:33:34;;;;;;;;;;;;;;;16.91;59.59;101425.03;4189897;28;20372;-66
2023/09/16 06:35:36;;;;;;;;;;;;;;;16.96;59.68;101432.63;4180962;28;20023;-66
2023/09/16 06:37:41;;;;;;;;;;;;;;;16.99;59.59;101418.56;4175936;28;19958;-66
2023/09/16 06:39:45;;;;;;;;;;;;;;;17.02;59.41;101425.47;4173387;28;20495;-66
2023/09/16 06:41:49;;;;;;;;;;;;;;;17.04;59.53;101426.13;4179249;28;20091;-66
2023/09/16 06:43:51;;;;;;;;;;;;;;;17.06;59.47;101429.50;4187723;28;20454;-66
2023/09/16 06:45:55;;;;;;;;;;;;;;;17.10;59.42;101428.06;4172784;28;20024;-65
2023/09/16 06:47:58;;;;;;;;;;;;;;;17.11;59.26;101421.53;4176096;28;20597;-65
2023/09/16 06:50:01;;;;;;;;;;;;;;;17.16;59.09;101418.19;4173918;28;20677;-65
2023/09/16 06:52:04;;;;;;;;;;;;;;;17.20;59.09;101424.94;4172118;28;20032;-66
2023/09/16 06:54:08;;;;;;;;;;;;;;;17.22;59.01;101414.66;4174356;28;20031;-66
2023/09/16 06:56:10;;;;;;;;;;;;;;;17.26;59.02;101419.50;4172431;28;20032;-68
2023/09/16 06:58:13;;;;;;;;;;;;;;;17.28;59.36;101430.22;4172604;28;20372;-66
2023/09/16 07:00:23;;;;;;;;;;;;;;;17.29;59.45;101424.53;4173523;28;19935;-68
2023/09/16 07:02:36;;;;;;;;;;;;;;;17.34;59.31;101413.00;4188034;28;19991;-67
2023/09/16 07:04:40;;;;;;;;;;;;;;;17.37;59.45;101418.06;4173537;28;20140;-66
2023/09/16 07:06:42;;;;;;;;;;;;;;;17.40;59.28;101420.38;4172796;28;20028;-66
2023/09/16 07:08:44;;;;;;;;;;;;;;;17.42;59.09;101425.63;4172968;28;20016;-67
2023/09/16 07:10:48;;;;;;;;;;;;;;;17.46;58.91;101421.44;4170178;28;20495;-66
2023/09/16 07:12:50;;;;;;;;;;;;;;;17.50;58.89;101419.16;4171401;28;20032;-66
2023/09/16 07:14:52;;;;;;;;;;;;;;;17.55;58.83;101416.63;4173636;28;20027;-67
2023/09/16 07:16:54;;;;;;;;;;;;;;;17.58;58.92;101418.94;4172791;28;20048;-66
2023/09/16 07:19:02;;;;;;;;;;;;;;;17.60;59.03;101423.16;4173071;28;20028;-67
2023/09/16 07:21:06;;;;;;;;;;;;;;;17.62;58.79;101415.59;4171317;28;20016;-66
2023/09/16 07:23:08;;;;;;;;;;;;;;;17.66;58.59;101410.56;4171677;28;20039;-66
2023/09/16 07:25:10;;;;;;;;;;;;;;;17.69;58.81;101415.59;4172407;28;20015;-66
2023/09/16 07:27:14;;;;;;;;;;;;;;;17.71;58.50;101408.06;4172255;28;20037;-65
2023/09/16 07:29:16;;;;;;;;;;;;;;;17.76;58.49;101410.16;4172781;28;20593;-68
2023/09/16 07:31:18;;;;;;;;;;;;;;;17.80;58.41;101411.41;4172172;28;20626;-67
2023/09/16 07:33:20;;;;;;;;;;;;;;;17.84;57.99;101407.22;4172415;28;20019;-66
2023/09/16 07:35:22;;;;;;;;;;;;;;;17.87;58.08;101409.53;4172443;28;20028;-66
2023/09/16 07:37:24;;;;;;;;;;;;;;;17.89;58.21;101399.25;4172445;28;20008;-66
2023/09/16 07:39:26;;;;;;;;;;;;;;;17.94;58.10;101402.19;4172160;28;20032;-65
2023/09/16 07:41:32;;;;;;;;;;;;;;;17.98;57.91;101403.47;4172203;28;19960;-66
2023/09/16 07:43:34;;;;;;;;;;;;;;;18.03;57.60;101394.66;4172692;28;20024;-66
2023/09/16 07:45:37;;;;;;;;;;;;;;;18.08;57.71;101396.75;4172411;28;20025;-65
2023/09/16 07:47:39;;;;;;;;;;;;;;;18.12;57.42;101396.13;4170447;28;20048;-66
2023/09/16 07:49:42;;;;;;;;;;;;;;;18.16;57.73;101394.63;4172430;28;20017;-66
2023/09/16 07:51:45;;;;;;;;;;;;;;;18.22;57.54;101395.69;4171184;28;19925;-66
2023/09/16 07:53:47;;;;;;;;;;;;;;;18.27;57.48;101395.03;4171351;28;20007;-66
2023/09/16 07:55:52;;;;;;;;;;;;;;;18.30;57.26;101391.88;4172347;28;20447;-66
2023/09/16 07:57:54;;;;;;;;;;;;;;;18.35;57.24;101397.56;4172108;28;20542;-67
2023/09/16 08:00:03;;;;;;;;;;;;;;;18.40;57.13;101389.56;4172423;28;20020;-65
2023/09/16 08:02:14;;;;;;;;;;;;;;;18.45;56.96;101397.97;4170659;28;20058;-66
2023/09/16 08:04:16;;;;;;;;;;;;;;;18.51;56.71;101396.25;4173201;28;20016;-66
2023/09/16 08:06:19;;;;;;;;;;;;;;;18.55;56.80;101394.78;4172689;28;20020;-66
2023/09/16 08:08:21;;;;;;;;;;;;;;;18.60;56.68;101388.66;4171479;28;20043;-66
2023/09/16 08:10:23;;;;;;;;;;;;;;;18.65;56.56;101386.13;4171013;28;20028;-67
2023/09/16 08:12:25;;;;;;;;;;;;;;;18.69;56.57;101392.84;4170524;28;20382;-66
2023/09/16 08:14:26;;;;;;;;;;;;;;;18.74;56.55;101387.56;4171441;28;20007;-66
2023/09/16 08:16:29;;;;;;;;;;;;;;;18.79;56.44;101395.97;4172212;28;19992;-65
2023/09/16 08:18:31;;;;;;;;;;;;;;;18.85;56.36;101397.03;4172813;28;19996;-66
2023/09/16 08:20:33;;;;;;;;;;;;;;;18.89;56.20;101398.28;4171337;28;20020;-65
2023/09/16 08:22:35;;;;;;;;;;;;;;;18.95;56.23;101397.44;4171035;28;20015;-65
2023/09/16 08:24:37;;;;;;;;;;;;;;;18.99;56.10;101401.41;4170303;28;20015;-65
2023/09/16 08:26:39;;;;;;;;;;;;;;;19.05;56.36;101383.28;4170907;28;20020;-66
2023/09/16 08:28:41;;;;;;;;;;;;;;;19.09;56.17;101390.84;4171184;28;20421;-64
2023/09/16 08:30:43;;;;;;;;;;;;;;;19.16;55.76;101389.97;4169634;28;20351;-65
2023/09/16 08:32:47;;;;;;;;;;;;;;;19.20;55.93;101386.56;4169449;28;19929;-64
2023/09/16 08:34:50;;;;;;;;;;;;;;;19.26;55.93;101387.56;4173155;28;20458;-66
2023/09/16 08:36:52;;;;;;;;;;;;;;;19.33;55.59;101382.91;4170681;28;20209;-67
2023/09/16 08:38:54;;;;;;;;;;;;;;;19.40;55.55;101385.59;4170724;28;20028;-68
2023/09/16 08:40:57;;;;;;;;;;;;;;;19.49;55.34;101386.19;4171325;28;20012;-66
2023/09/16 08:43:14;;;;;;;;;;;;;;;19.57;55.34;101373.06;4170312;28;20024;-65
2023/09/16 08:45:18;;;;;;;;;;;;;;;19.68;54.99;101379.72;4170997;28;19975;-65
2023/09/16 08:47:22;;;;;;;;;;;;;;;19.79;54.83;101387.25;4170770;28;20059;-67
2023/09/16 08:49:26;;;;;;;;;;;;;;;19.90;54.63;101380.22;4170825;28;19975;-66
2023/09/16 08:51:28;;;;;;;;;;;;;;;20.01;54.29;101378.66;4169097;28;20809;-65
2023/09/16 08:53:31;;;;;;;;;;;;;;;20.12;54.44;101379.81;4170294;28;19936;-65
2023/09/16 08:55:35;;;;;;;;;;;;;;;20.23;53.99;101372.75;4171410;28;20481;-66
2023/09/16 08:57:43;;;;;;;;;;;;;;;20.32;53.77;101376.88;4171064;28;20039;-65
2023/09/16 08:59:45;;;;;;;;;;;;;;;20.38;53.52;101370.50;4170996;28;20386;-66
2023/09/16 09:01:47;;;;;;;;;;;;;;;20.45;53.57;101368.50;4186625;28;20477;-66
2023/09/16 09:03:50;;;;;;;;;;;;;;;20.50;53.51;101365.94;4171369;28;20040;-66
2023/09/16 09:05:53;;;;;;;;;;;;;;;20.54;53.51;101371.78;4171281;28;20447;-66
2023/09/16 09:07:55;;;;;;;;;;;;;;;20.58;53.29;101367.53;4172119;28;20021;-66
2023/09/16 09:09:58;;;;;;;;;;;;;;;20.60;53.10;101365.41;4170014;28;20007;-66
2023/09/16 09:12:00;;;;;;;;;;;;;;;20.61;53.04;101361.59;4172028;28;20045;-66
2023/09/16 09:14:03;;;;;;;;;;;;;;;20.63;53.22;101364.94;4170326;28;19929;-65
2023/09/16 09:16:05;;;;;;;;;;;;;;;20.64;53.10;101365.78;4170351;28;20020;-64
2023/09/16 09:18:08;;;;;;;;;;;;;;;20.65;53.45;101356.50;4169466;28;19929;-64
2023/09/16 09:20:10;;;;;;;;;;;;;;;20.66;53.57;101359.03;4170601;28;20015;-65
2023/09/16 09:22:13;;;;;;;;;;;;;;;20.68;53.47;101354.13;4168685;28;20334;-63
2023/09/16 09:24:15;;;;;;;;;;;;;;;20.69;53.72;101355.81;4170147;28;20443;-64
2023/09/16 09:26:17;;;;;;;;;;;;;;;20.70;53.43;101362.13;4186241;28;20028;-64
2023/09/16 09:28:19;;;;;;;;;;;;;;;20.70;53.45;101360.25;4170084;28;20028;-63
2023/09/16 09:30:26;;;;;;;;;;;;;;;20.70;53.70;101360.25;4169566;28;20035;-64
2023/09/16 09:32:28;;;;;;;;;;;;;;;20.72;53.61;101350.94;4170515;28;20036;-64
2023/09/16 09:34:32;;;;;;;;;;;;;;;20.73;53.64;101352.63;4170354;28;19925;-65
2023/09/16 09:36:35;;;;;;;;;;;;;;;20.76;53.79;101352.16;4170583;28;20047;-65
2023/09/16 09:38:41;;;;;;;;;;;;;;;20.75;53.70;101345.81;4170777;28;20027;-65
2023/09/16 09:40:43;;;;;;;;;;;;;;;20.77;53.71;101343.69;4169317;28;20143;-65
2023/09/16 09:42:46;;;;;;;;;;;;;;;20.78;53.69;101344.53;4169271;28;20028;-65
2023/09/16 09:44:48;;;;;;;;;;;;;;;20.79;53.55;101329.75;4171197;28;20016;-65
2023/09/16 09:46:50;;;;;;;;;;;;;;;20.79;53.69;101332.50;4169507;28;20020;-64
2023/09/16 09:48:52;;;;;;;;;;;;;;;20.80;53.75;101332.25;4170346;28;20019;-65
2023/09/16 09:50:54;;;;;;;;;;;;;;;20.81;53.84;101330.34;4169335;28;20024;-64
2023/09/16 09:52:55;;;;;;;;;;;;;;;20.82;53.86;101321.03;4171533;28;20378;-65
2023/09/16 09:54:59;;;;;;;;;;;;;;;20.84;54.02;101329.88;4170367;28;19932;-64
2023/09/16 09:57:04;;;;;;;;;;;;;;;20.85;53.98;101326.06;4168722;28;20012;-66
2023/09/16 09:59:06;;;;;;;;;;;;;;;20.84;53.81;101314.22;4168639;28;20024;-65
2023/09/16 10:01:08;;;;;;;;;;;;;;;20.86;54.02;101323.09;4169173;28;20620;-65
2023/09/16 10:03:10;;;;;;;;;;;;;;;20.88;53.97;101317.38;4169816;28;20020;-66
2023/09/16 10:05:17;;;;;;;;;;;;;;;20.87;53.94;101313.78;4169458;28;20458;-64
2023/09/16 10:07:19;;;;;;;;;;;;;;;20.89;54.02;101313.53;4171183;28;20044;-63
2023/09/16 10:09:21;;;;;;;;;;;;;;;20.90;53.97;101314.41;4169968;28;20046;-67
2023/09/16 10:11:25;;;;;;;;;;;;;;;20.90;54.10;101311.66;4170174;28;20024;-67
2023/09/16 10:13:28;;;;;;;;;;;;;;;20.91;54.14;101308.69;4168490;28;20023;-62
2023/09/16 10:15:31;;;;;;;;;;;;;;;20.92;54.00;101310.34;4171072;28;20000;-66
2023/09/16 10:17:33;;;;;;;;;;;;;;;20.93;54.24;101309.28;4171364;28;20035;-64
2023/09/16 10:19:35;;;;;;;;;;;;;;;20.95;54.20;101317.28;4169762;28;20024;-64
2023/09/16 10:21:37;;;;;;;;;;;;;;;20.95;54.24;101309.88;4171260;28;20373;-64
2023/09/16 10:23:39;;;;;;;;;;;;;;;20.97;54.54;101305.00;4170211;28;20048;-64
2023/09/16 10:25:41;;;;;;;;;;;;;;;20.99;54.45;101299.28;4170869;28;20035;-65
2023/09/16 10:27:45;;;;;;;;;;;;;;;21.01;54.49;101300.69;4171897;28;20398;-64
2023/09/16 10:29:48;;;;;;;;;;;;;;;21.03;54.32;101301.31;4184570;28;20328;-65